Time;durP1;ratioP1;P1;durP2;ratioP2;P2;SDS_P1;SDS_P2;PMS_P1;PMS_P2;Temp;Humidity;BMP_temperature;BMP_pressure;BME280_temperature;BME280_humidity;BME280_pressure;Samples;Min_cycle;Max_cycle;Signal;HPM_P1;HPM_P2
2023/07/21 00:00:32;;;;;;;5.78;1.70;;;;;;;19.59;49.15;99474.13;5015696;28;20073;-79
2023/07/21 00:02:59;;;;;;;3.00;1.60;;;;;;;19.55;49.27;99480.75;5011906;28;20050;-79
2023/07/21 00:05:25;;;;;;;2.88;1.90;;;;;;;19.51;49.28;99480.22;5032628;28;20064;-79
2023/07/21 00:07:52;;;;;;;5.35;2.00;;;;;;;19.48;49.49;99471.69;5032962;28;20156;-80
2023/07/21 00:10:18;;;;;;;4.07;2.15;;;;;;;19.45;49.67;99472.84;5032961;28;20108;-80
2023/07/21 00:12:47;;;;;;;4.22;1.85;;;;;;;19.42;49.64;99480.28;5032843;28;20049;-80
2023/07/21 00:15:17;;;;;;;5.18;2.45;;;;;;;19.39;49.64;99481.44;5015279;28;20054;-79
2023/07/21 00:17:48;;;;;;;3.97;2.92;;;;;;;19.37;49.86;99472.75;5033295;28;20046;-79
2023/07/21 00:20:21;;;;;;;4.28;2.75;;;;;;;19.36;49.71;99471.09;5032769;28;20053;-79
2023/07/21 00:22:49;;;;;;;3.80;2.72;;;;;;;19.34;49.60;99465.06;5026831;28;20422;-79
2023/07/21 00:25:16;;;;;;;3.38;2.83;;;;;;;19.30;49.84;99461.84;5032563;28;20045;-79
2023/07/21 00:27:44;;;;;;;4.97;3.20;;;;;;;19.25;50.07;99454.28;5014706;28;20046;-79
2023/07/21 00:30:11;;;;;;;3.33;2.67;;;;;;;19.19;49.89;99454.91;5032741;28;20056;-80
2023/07/21 00:32:41;;;;;;;4.25;2.75;;;;;;;19.13;50.25;99450.16;5029362;28;20413;-80
2023/07/21 00:35:09;;;;;;;4.15;2.72;;;;;;;19.07;50.25;99448.13;5032160;28;20501;-79
2023/07/21 00:37:37;;;;;;;4.35;2.85;;;;;;;19.01;50.30;99445.03;5014977;28;20055;-79
2023/07/21 00:40:09;;;;;;;6.95;2.72;;;;;;;18.97;50.12;99450.81;5032680;28;20058;-79
2023/07/21 00:42:37;;;;;;;3.47;2.30;;;;;;;18.93;50.02;99450.28;5027844;28;20050;-80
2023/07/21 00:45:04;;;;;;;4.50;2.28;;;;;;;18.89;50.50;99441.72;5027745;28;20060;-79
2023/07/21 00:47:35;;;;;;;4.93;2.28;;;;;;;18.83;50.62;99450.31;5032097;28;20053;-79
2023/07/21 00:50:02;;;;;;;3.08;2.28;;;;;;;18.82;50.67;99459.31;5032699;28;20050;-79
2023/07/21 00:52:29;;;;;;;5.43;2.30;;;;;;;18.78;50.36;99449.94;5032073;28;20139;-79
2023/07/21 00:54:55;;;;;;;2.50;1.92;;;;;;;18.77;50.47;99447.41;5031887;28;20049;-79
2023/07/21 00:57:23;;;;;;;3.47;2.33;;;;;;;18.74;50.73;99443.22;5032074;28;20050;-79
2023/07/21 00:59:50;;;;;;;5.72;2.22;;;;;;;18.73;50.55;99446.88;5031949;28;20053;-80
2023/07/21 01:02:17;;;;;;;5.00;2.58;;;;;;;18.71;50.89;99435.50;5032047;28;20379;-79
2023/07/21 01:04:45;;;;;;;2.63;2.20;;;;;;;18.68;51.40;99431.31;5010520;28;20046;-79
2023/07/21 01:07:13;;;;;;;2.67;2.00;;;;;;;18.67;50.83;99434.13;5029497;28;20057;-79
2023/07/21 01:09:42;;;;;;;4.50;2.15;;;;;;;18.64;51.02;99429.94;5031970;28;20117;-80
2023/07/21 01:12:09;;;;;;;2.65;2.00;;;;;;;18.62;51.15;99427.41;5031881;28;20311;-79
2023/07/21 01:14:37;;;;;;;3.22;2.20;;;;;;;18.59;51.50;99425.06;5014218;28;20068;-79
2023/07/21 01:17:07;;;;;;;3.17;2.05;;;;;;;18.56;51.88;99420.03;5031542;28;20552;-79
2023/07/21 01:19:36;;;;;;;4.43;2.28;;;;;;;18.54;51.96;99427.31;5031693;28;20521;-80
2023/07/21 01:22:10;;;;;;;2.92;2.13;;;;;;;18.50;52.33;99423.25;5031227;28;20089;-80
2023/07/21 01:24:43;;;;;;;3.40;2.30;;;;;;;18.47;52.71;99412.91;5027460;28;20046;-79
2023/07/21 01:27:15;;;;;;;3.95;2.08;;;;;;;18.44;52.14;99414.06;5031621;28;20045;-79
2023/07/21 01:29:44;;;;;;;2.88;2.05;;;;;;;18.44;52.00;99415.88;5014133;28;20049;-80
2023/07/21 01:32:13;;;;;;;5.05;2.50;;;;;;;18.40;51.92;99407.34;5031566;28;20481;-79
2023/07/21 01:34:40;;;;;;;4.82;2.47;;;;;;;18.40;52.20;99409.16;5030839;28;20049;-79
2023/07/21 01:37:08;;;;;;;4.15;1.92;;;;;;;18.36;52.17;99405.94;5031272;28;20057;-79
2023/07/21 01:39:36;;;;;;;2.65;2.17;;;;;;;18.34;52.16;99403.44;5014056;28;20049;-79
2023/07/21 01:42:05;;;;;;;6.95;1.83;;;;;;;18.33;52.57;99400.91;5031335;28;20064;-79
2023/07/21 01:44:32;;;;;;;3.90;2.15;;;;;;;18.32;52.72;99402.72;5025982;28;20108;-79
2023/07/21 01:46:59;;;;;;;3.45;2.30;;;;;;;18.31;52.68;99398.38;5030676;28;20049;-79
2023/07/21 01:49:26;;;;;;;1.92;1.75;;;;;;;18.30;52.94;99388.72;5031340;28;20045;-79
2023/07/21 01:51:58;;;;;;;3.65;2.00;;;;;;;18.29;53.12;99389.72;5031119;28;20203;-80
2023/07/21 01:54:42;;;;;;;3.17;1.90;;;;;;;18.26;53.48;99384.66;5030767;28;20049;-79
2023/07/21 01:57:13;;;;;;;3.17;1.88;;;;;;;18.29;53.59;99379.06;5013587;28;20456;-79
2023/07/21 01:59:43;;;;;;;3.90;1.88;;;;;;;18.29;53.13;99379.06;5013559;28;20464;-80
2023/07/21 02:02:10;;;;;;;2.88;2.10;;;;;;;18.30;53.33;99377.22;5013457;28;20489;-79
2023/07/21 02:04:38;;;;;;;2.63;2.00;;;;;;;18.29;53.21;99381.72;5030743;28;20406;-80
2023/07/21 02:07:05;;;;;;;3.38;2.15;;;;;;;18.30;53.14;99380.72;5012979;28;20060;-79
2023/07/21 02:09:31;;;;;;;3.58;2.40;;;;;;;18.28;53.39;99381.88;5029699;28;20053;-79
2023/07/21 02:11:58;;;;;;;3.38;2.22;;;;;;;18.25;53.24;99380.34;5029667;28;20068;-79
2023/07/21 02:14:25;;;;;;;7.57;2.00;;;;;;;18.24;52.96;99378.63;5027485;28;20049;-79
2023/07/21 02:16:51;;;;;;;2.78;2.00;;;;;;;18.22;52.98;99372.63;5030366;28;20053;-80
2023/07/21 02:19:19;;;;;;;5.65;2.47;;;;;;;18.19;53.11;99370.25;5031121;28;20057;-79
2023/07/21 02:21:45;;;;;;;3.30;2.33;;;;;;;18.14;53.54;99368.03;5030784;28;20119;-79
2023/07/21 02:24:12;;;;;;;3.47;2.38;;;;;;;18.11;53.24;99368.31;5030479;28;20052;-79
2023/07/21 02:26:38;;;;;;;3.08;2.33;;;;;;;18.09;53.40;99371.13;5030455;28;20420;-79
2023/07/21 02:29:05;;;;;;;2.67;2.00;;;;;;;18.05;53.51;99367.03;5012976;28;20088;-80
2023/07/21 02:31:32;;;;;;;3.63;2.20;;;;;;;18.04;53.37;99364.53;5012765;28;20053;-79
2023/07/21 02:33:58;;;;;;;2.58;2.08;;;;;;;18.01;53.75;99357.66;5028949;28;20526;-80
2023/07/21 02:36:25;;;;;;;4.25;1.95;;;;;;;18.00;54.06;99365.81;5030437;28;20057;-80
2023/07/21 02:38:52;;;;;;;2.88;2.25;;;;;;;17.97;53.56;99366.94;5030466;28;20053;-79
2023/07/21 02:41:18;;;;;;;6.13;1.83;;;;;;;17.95;53.86;99366.25;5030458;28;20092;-79
2023/07/21 02:43:45;;;;;;;3.03;2.15;;;;;;;17.93;53.79;99362.88;5029678;28;20099;-80
2023/07/21 02:46:13;;;;;;;2.33;1.80;;;;;;;17.91;53.60;99364.88;5028203;28;20045;-79
2023/07/21 02:48:40;;;;;;;5.15;2.35;;;;;;;17.88;53.69;99362.47;5030451;28;20041;-80
2023/07/21 02:51:07;;;;;;;4.10;2.20;;;;;;;17.87;54.18;99368.81;5030421;28;20057;-79
2023/07/21 02:53:33;;;;;;;3.58;2.30;;;;;;;17.83;53.96;99358.44;5030247;28;20060;-80
2023/07/21 02:56:03;;;;;;;2.90;1.70;;;;;;;17.82;54.24;99358.56;5029969;28;20053;-79
2023/07/21 02:58:30;;;;;;;3.25;2.00;;;;;;;17.81;54.21;99363.06;5028480;28;20049;-79
2023/07/21 03:00:58;;;;;;;4.43;2.10;;;;;;;17.77;54.29;99367.00;5026144;28;20463;-80
2023/07/21 03:03:25;;;;;;;5.32;1.80;;;;;;;17.77;54.55;99368.81;5012622;28;20489;-79
2023/07/21 03:05:52;;;;;;;5.63;2.00;;;;;;;17.75;54.21;99370.81;5041398;22;20034;-80
2023/07/21 03:08:28;;;;;;;6.82;2.00;;;;;;;17.71;54.24;99367.56;5010146;28;20439;-79
2023/07/21 03:10:56;;;;;;;5.07;2.15;;;;;;;17.69;54.20;99366.88;5010006;28;20078;-78
2023/07/21 03:13:26;;;;;;;2.42;1.73;;;;;;;17.65;53.92;99366.31;5008165;28;20133;-76
2023/07/21 03:15:53;;;;;;;5.82;2.50;;;;;;;17.62;54.09;99368.44;5010526;28;20049;-77
2023/07/21 03:18:19;;;;;;;2.10;1.90;;;;;;;17.57;54.25;99375.03;5010487;28;20064;-76
2023/07/21 03:20:49;;;;;;;3.42;2.03;;;;;;;17.54;54.58;99374.47;5010152;28;20769;-76
2023/07/21 03:23:16;;;;;;;4.25;2.30;;;;;;;17.51;54.89;99367.63;5010428;28;20064;-76
2023/07/21 03:25:43;;;;;;;7.70;2.53;;;;;;;17.50;54.93;99375.75;5010026;28;20053;-76
2023/07/21 03:28:09;;;;;;;5.63;1.83;;;;;;;17.49;55.20;99374.88;5010383;28;20058;-77
2023/07/21 03:30:36;;;;;;;4.28;2.13;;;;;;;17.48;55.05;99370.56;5010127;28;20121;-76
2023/07/21 03:33:03;;;;;;;3.17;2.05;;;;;;;17.47;54.85;99368.03;5010357;28;20057;-76
2023/07/21 03:35:30;;;;;;;3.20;2.10;;;;;;;17.44;55.16;99370.00;5010049;28;20485;-77
2023/07/21 03:37:57;;;;;;;3.00;1.90;;;;;;;17.43;55.22;99373.63;5010289;28;20089;-76
2023/07/21 03:40:24;;;;;;;2.17;1.77;;;;;;;17.42;55.12;99368.47;5009976;28;20049;-77
2023/07/21 03:42:52;;;;;;;4.32;1.90;;;;;;;17.41;55.22;99369.44;5010414;28;20061;-76
2023/07/21 03:45:19;;;;;;;4.35;2.53;;;;;;;17.38;55.24;99370.56;5010369;28;20573;-76
2023/07/21 03:47:45;;;;;;;2.97;2.13;;;;;;;17.38;55.40;99365.25;5013732;28;20100;-77
2023/07/21 03:50:12;;;;;;;2.75;2.17;;;;;;;17.38;55.51;99365.25;5013505;28;20046;-76
2023/07/21 03:52:41;;;;;;;2.85;2.28;;;;;;;17.38;55.88;99353.78;5013557;28;20048;-77
2023/07/21 03:55:08;;;;;;;4.22;2.47;;;;;;;17.37;55.76;99358.25;5013402;28;20585;-76
2023/07/21 03:57:35;;;;;;;4.07;3.00;;;;;;;17.37;56.22;99352.06;5013503;28;20060;-77
2023/07/21 04:00:03;;;;;;;5.22;2.80;;;;;;;17.37;56.49;99349.41;5013636;28;20096;-76
2023/07/21 04:02:29;;;;;;;4.20;3.28;;;;;;;17.38;56.61;99349.28;5013355;28;20049;-77
2023/07/21 04:04:56;;;;;;;4.50;3.33;;;;;;;17.38;56.64;99345.78;5024175;28;20057;-76
2023/07/21 04:07:23;;;;;;;4.15;3.45;;;;;;;17.37;56.91;99350.25;5013631;28;20062;-76
2023/07/21 04:09:49;;;;;;;5.88;3.30;;;;;;;17.36;56.94;99345.94;5013568;28;20050;-76
2023/07/21 04:12:16;;;;;;;4.53;3.40;;;;;;;17.36;57.21;99348.59;5013339;28;20050;-77
2023/07/21 04:14:43;;;;;;;8.45;3.53;;;;;;;17.35;57.41;99340.75;5013335;28;20050;-75
2023/07/21 04:17:11;;;;;;;3.75;2.60;;;;;;;17.36;57.35;99339.75;5013089;28;20437;-78
2023/07/21 04:19:38;;;;;;;3.70;3.28;;;;;;;17.35;57.29;99333.63;5005259;28;20053;-76
2023/07/21 04:22:04;;;;;;;4.10;3.15;;;;;;;17.36;57.58;99332.63;5012852;28;20080;-76
2023/07/21 04:24:33;;;;;;;3.38;3.08;;;;;;;17.37;57.63;99333.44;5004158;28;20643;-77
2023/07/21 04:27:00;;;;;;;4.30;3.00;;;;;;;17.37;57.29;99333.44;5012848;28;20053;-77
2023/07/21 04:29:27;;;;;;;7.35;3.35;;;;;;;17.38;57.47;99335.16;5013064;28;20092;-78
2023/07/21 04:32:03;;;;;;;4.32;3.13;;;;;;;17.38;57.52;99337.81;5012795;28;20134;-76
2023/07/21 04:34:30;;;;;;;3.25;2.88;;;;;;;17.39;57.92;99334.16;5012103;28;20046;-76
2023/07/21 04:36:57;;;;;;;4.35;3.17;;;;;;;17.40;57.64;99333.19;5012524;28;20052;-77
2023/07/21 04:39:24;;;;;;;4.38;2.95;;;;;;;17.43;58.05;99340.88;5012982;28;20054;-76
2023/07/21 04:41:50;;;;;;;4.18;2.92;;;;;;;17.45;58.03;99342.41;5012454;28;20049;-77
2023/07/21 04:44:17;;;;;;;3.50;3.20;;;;;;;17.48;58.10;99337.78;5012692;28;20069;-77
2023/07/21 04:46:46;;;;;;;5.18;3.00;;;;;;;17.50;57.99;99341.16;5012279;28;20133;-77
2023/07/21 04:49:13;;;;;;;4.45;3.10;;;;;;;17.52;58.20;99333.84;5012523;28;20061;-77
2023/07/21 04:51:39;;;;;;;4.97;2.92;;;;;;;17.55;58.36;99336.22;5021049;28;20089;-78
2023/07/21 04:54:07;;;;;;;4.47;2.80;;;;;;;17.57;58.53;99332.44;5012277;28;20084;-76
2023/07/21 04:56:34;;;;;;;4.18;3.05;;;;;;;17.60;58.58;99338.47;5011823;28;20054;-77
2023/07/21 04:59:01;;;;;;;6.63;3.08;;;;;;;17.63;58.35;99332.84;5007126;28;20753;-76
2023/07/21 05:01:28;;;;;;;6.10;3.60;;;;;;;17.65;58.62;99330.88;5012352;28;20120;-77
2023/07/21 05:03:55;;;;;;;4.57;2.78;;;;;;;17.66;58.42;99330.75;5012245;28;20077;-77
2023/07/21 05:06:21;;;;;;;5.47;3.08;;;;;;;17.68;58.27;99328.78;5012209;28;20128;-76
2023/07/21 05:08:48;;;;;;;8.63;3.10;;;;;;;17.70;58.55;99326.81;5012164;28;20062;-78
2023/07/21 05:11:15;;;;;;;3.10;2.60;;;;;;;17.73;58.50;99320.38;5009326;28;20065;-76
2023/07/21 05:13:44;;;;;;;4.80;3.47;;;;;;;17.75;58.35;99321.03;5011889;28;20046;-76
2023/07/21 05:16:11;;;;;;;3.53;2.85;;;;;;;17.80;58.55;99320.63;5011960;28;20470;-75
2023/07/21 05:18:39;;;;;;;4.70;3.10;;;;;;;17.82;58.50;99324.81;5012189;28;20049;-76
2023/07/21 05:21:05;;;;;;;4.53;3.10;;;;;;;17.86;58.26;99324.53;5012065;28;20045;-76
2023/07/21 05:23:32;;;;;;;4.32;3.47;;;;;;;17.89;58.58;99324.22;5011525;28;20057;-76
2023/07/21 05:26:00;;;;;;;4.50;2.97;;;;;;;17.92;58.32;99318.59;5011533;28;20058;-78
2023/07/21 05:28:30;;;;;;;7.10;2.90;;;;;;;17.94;58.37;99327.31;5011877;28;20141;-77
2023/07/21 05:30:57;;;;;;;4.32;2.92;;;;;;;17.97;58.13;99324.31;5011995;28;20505;-77
2023/07/21 05:33:24;;;;;;;3.30;2.83;;;;;;;17.98;57.94;99329.50;5011634;28;20533;-76
2023/07/21 05:35:51;;;;;;;4.80;2.55;;;;;;;18.02;57.99;99337.22;5011712;28;20112;-76
2023/07/21 05:38:17;;;;;;;4.60;2.80;;;;;;;18.02;58.29;99335.38;5011750;28;20658;-76
2023/07/21 05:40:44;;;;;;;4.45;2.53;;;;;;;18.05;58.69;99335.09;5011691;28;20045;-78
2023/07/21 05:43:11;;;;;;;4.18;2.63;;;;;;;18.08;58.09;99333.97;5011420;28;20057;-77
2023/07/21 05:45:39;;;;;;;4.03;2.53;;;;;;;18.11;58.14;99339.03;5011696;28;20108;-77
2023/07/21 05:48:09;;;;;;;3.50;2.58;;;;;;;18.15;58.22;99328.91;5011419;28;20491;-76
2023/07/21 05:50:37;;;;;;;2.95;2.38;;;;;;;18.20;58.06;99331.97;5011841;28;20060;-80
2023/07/21 05:53:04;;;;;;;5.43;2.60;;;;;;;18.23;58.23;99329.84;5011328;28;20454;-76
2023/07/21 05:55:31;;;;;;;4.68;2.92;;;;;;;18.27;58.27;99332.25;5010282;28;20190;-76
2023/07/21 05:57:58;;;;;;;4.85;3.03;;;;;;;18.32;58.17;99337.97;5011362;28;20508;-76
2023/07/21 06:00:26;;;;;;;3.10;2.60;;;;;;;18.36;58.19;99328.69;5011472;28;20050;-76
2023/07/21 06:02:53;;;;;;;9.45;3.40;;;;;;;18.40;57.73;99326.53;5011484;28;20149;-77
2023/07/21 06:05:19;;;;;;;15.38;3.50;;;;;;;18.44;57.82;99331.44;5010927;28;20057;-75
2023/07/21 06:07:46;;;;;;;3.50;2.88;;;;;;;18.47;57.89;99328.44;5011218;28;20081;-74
2023/07/21 06:10:13;;;;;;;5.97;2.78;;;;;;;18.52;57.69;99333.34;5011045;28;20096;-76
2023/07/21 06:12:39;;;;;;;6.68;2.95;;;;;;;18.55;57.72;99325.06;5011320;28;20115;-76
2023/07/21 06:15:08;;;;;;;4.70;2.83;;;;;;;18.58;57.81;99324.75;5010446;28;20050;-77
2023/07/21 06:17:34;;;;;;;5.90;3.10;;;;;;;18.62;57.61;99323.44;5011049;28;20085;-75
2023/07/21 06:20:01;;;;;;;4.70;3.17;;;;;;;18.67;57.89;99322.16;5011119;28;20061;-75
2023/07/21 06:22:28;;;;;;;4.57;3.10;;;;;;;18.72;57.88;99323.38;5002923;28;20093;-79
2023/07/21 06:24:55;;;;;;;5.35;2.90;;;;;;;18.78;57.67;99324.63;5010439;28;20077;-75
2023/07/21 06:27:22;;;;;;;3.83;2.75;;;;;;;18.84;57.73;99325.84;5010932;28;20107;-75
2023/07/21 06:29:49;;;;;;;3.50;2.60;;;;;;;18.90;58.00;99327.88;5010803;28;20490;-77
2023/07/21 06:32:15;;;;;;;2.88;2.42;;;;;;;18.97;57.79;99333.44;5011061;28;20108;-75
2023/07/21 06:34:42;;;;;;;4.15;2.92;;;;;;;19.04;57.69;99331.84;5009815;28;20050;-75
2023/07/21 06:37:09;;;;;;;5.43;2.80;;;;;;;19.12;57.52;99331.97;4990720;28;20058;-78
2023/07/21 06:39:35;;;;;;;4.57;2.88;;;;;;;19.20;57.24;99333.00;4982814;28;20061;-75
2023/07/21 06:42:04;;;;;;;4.80;2.72;;;;;;;19.27;57.41;99336.75;4991382;28;20054;-74
2023/07/21 06:44:32;;;;;;;2.50;2.30;;;;;;;19.35;57.24;99339.47;4990800;28;20479;-76
2023/07/21 06:46:59;;;;;;;2.97;2.70;;;;;;;19.40;57.01;99334.50;5006686;28;20417;-76
2023/07/21 06:49:25;;;;;;;3.13;2.20;;;;;;;19.47;56.83;99326.72;5009020;28;20045;-78
2023/07/21 06:51:52;;;;;;;3.70;2.38;;;;;;;19.53;56.49;99325.25;5010689;28;20054;-76
2023/07/21 06:54:19;;;;;;;2.63;2.22;;;;;;;19.59;56.47;99324.59;5010546;28;20057;-76
2023/07/21 06:56:45;;;;;;;4.10;2.33;;;;;;;19.63;56.12;99323.31;5010089;28;20053;-78
2023/07/21 06:59:12;;;;;;;3.15;2.50;;;;;;;19.69;56.18;99321.03;5010398;28;20046;-79
2023/07/21 07:01:38;;;;;;;6.75;2.75;;;;;;;19.74;55.98;99316.03;5010695;28;20409;-77
2023/07/21 07:04:05;;;;;;;3.47;2.63;;;;;;;19.78;55.96;99314.72;5006474;28;20054;-78
2023/07/21 07:06:32;;;;;;;2.53;2.10;;;;;;;19.82;55.65;99315.25;5010369;28;20054;-75
2023/07/21 07:08:59;;;;;;;2.95;2.60;;;;;;;19.88;55.41;99317.25;5010244;28;20096;-76
2023/07/21 07:11:26;;;;;;;6.00;2.70;;;;;;;19.92;55.57;99322.13;5009031;28;20049;-76
2023/07/21 07:13:54;;;;;;;4.28;2.67;;;;;;;19.97;55.43;99323.50;5010556;28;20054;-75
2023/07/21 07:16:21;;;;;;;2.60;2.40;;;;;;;20.02;55.18;99318.53;5008554;28;20064;-78
2023/07/21 07:18:47;;;;;;;2.80;2.50;;;;;;;20.07;55.55;99318.88;5002192;28;20096;-77
2023/07/21 07:21:14;;;;;;;5.13;2.38;;;;;;;20.13;55.06;99317.41;5010058;28;20097;-77
2023/07/21 07:23:41;;;;;;;3.30;2.53;;;;;;;20.20;55.39;99312.25;5012453;28;20061;-78
2023/07/21 07:26:08;;;;;;;5.63;2.60;;;;;;;20.26;55.36;99314.31;5012730;28;20053;-76
2023/07/21 07:28:34;;;;;;;5.10;2.40;;;;;;;20.31;54.94;99314.66;5004211;28;20042;-76
2023/07/21 07:31:05;;;;;;;3.85;2.40;;;;;;;20.36;54.83;99311.47;5013406;28;20065;-78
2023/07/21 07:33:32;;;;;;;3.35;2.10;;;;;;;20.43;54.63;99312.50;5013612;28;20498;-78
2023/07/21 07:36:01;;;;;;;3.83;2.35;;;;;;;20.48;54.89;99309.34;5013673;28;20096;-76
2023/07/21 07:38:29;;;;;;;3.35;2.13;;;;;;;20.53;54.62;99317.72;5013851;28;20056;-76
2023/07/21 07:41:03;;;;;;;2.72;2.15;;;;;;;20.56;54.23;99312.06;5013473;28;20073;-77
2023/07/21 07:43:32;;;;;;;3.60;2.30;;;;;;;20.64;54.25;99309.38;5013451;28;20546;-80
2023/07/21 07:45:59;;;;;;;2.30;2.10;;;;;;;20.70;54.51;99314.06;5013644;28;20085;-78
2023/07/21 07:48:25;;;;;;;2.53;2.33;;;;;;;20.77;54.44;99316.94;5013599;28;20054;-75
2023/07/21 07:50:53;;;;;;;3.33;2.25;;;;;;;20.85;54.60;99315.28;5012732;28;20042;-76
2023/07/21 07:53:20;;;;;;;6.50;2.47;;;;;;;20.90;53.73;99318.31;5013441;28;20096;-74
2023/07/21 07:55:47;;;;;;;3.00;2.30;;;;;;;20.97;53.57;99316.63;5013829;28;20050;-76
2023/07/21 07:58:13;;;;;;;3.97;2.50;;;;;;;21.04;53.91;99309.63;5010629;28;20415;-78
2023/07/21 08:00:44;;;;;;;3.35;2.08;;;;;;;21.12;53.64;99321.34;5013434;28;20239;-78
2023/07/21 08:03:11;;;;;;;2.67;2.25;;;;;;;21.19;53.46;99328.53;5013453;28;20057;-76
2023/07/21 08:05:39;;;;;;;3.42;2.13;;;;;;;21.24;52.41;99314.66;5013009;28;20533;-77
2023/07/21 08:08:08;;;;;;;3.70;2.10;;;;;;;21.28;52.38;99309.78;5013433;28;20072;-76
2023/07/21 08:10:40;;;;;;;2.22;1.90;;;;;;;21.34;52.34;99317.97;5013861;28;20410;-76
2023/07/21 08:13:08;;;;;;;2.20;1.75;;;;;;;21.39;51.86;99312.13;5013048;28;20133;-75
2023/07/21 08:15:35;;;;;;;5.72;2.42;;;;;;;21.44;51.53;99308.91;5010496;28;20038;-77
2023/07/21 08:18:02;;;;;;;3.00;1.90;;;;;;;21.50;51.72;99318.13;5008127;28;20120;-75
2023/07/21 08:20:29;;;;;;;3.38;1.88;;;;;;;21.55;51.27;99313.09;5003616;28;20053;-76
2023/07/21 08:22:56;;;;;;;2.17;1.65;;;;;;;21.61;50.87;99312.41;5012625;28;20054;-76
2023/07/21 08:25:23;;;;;;;1.88;1.42;;;;;;;21.66;49.72;99312.75;5010328;28;20049;-76
2023/07/21 08:27:50;;;;;;;2.75;1.70;;;;;;;21.73;50.33;99313.75;5011748;28;20049;-79
2023/07/21 08:30:19;;;;;;;2.95;2.10;;;;;;;21.82;50.81;99311.03;5012035;28;20054;-78
2023/07/21 08:32:46;;;;;;;3.08;2.10;;;;;;;21.91;50.99;99314.53;5011991;28;20046;-78
2023/07/21 08:35:13;;;;;;;3.13;2.03;;;;;;;21.99;50.95;99318.00;5011791;28;20143;-78
2023/07/21 08:37:39;;;;;;;3.63;2.38;;;;;;;22.08;50.57;99315.31;5011473;28;20148;-80
2023/07/21 08:40:07;;;;;;;2.72;1.80;;;;;;;22.18;50.59;99315.94;5012536;28;20410;-79
2023/07/21 08:42:36;;;;;;;2.35;2.00;;;;;;;22.28;50.83;99321.09;5012350;28;20050;-78
2023/07/21 08:45:04;;;;;;;2.42;2.05;;;;;;;22.38;50.07;99318.19;5011970;28;20421;-77
2023/07/21 08:47:32;;;;;;;2.13;1.92;;;;;;;22.49;49.03;99311.59;5003338;28;20076;-78
2023/07/21 08:49:59;;;;;;;4.18;2.00;;;;;;;22.60;49.67;99313.06;5012248;28;20085;-78
2023/07/21 08:52:26;;;;;;;2.35;2.15;;;;;;;22.69;49.11;99311.19;5011989;28;20064;-81
2023/07/21 08:54:53;;;;;;;2.85;2.10;;;;;;;22.77;48.71;99309.25;5011828;28;20054;-78
2023/07/21 08:57:20;;;;;;;3.13;2.20;;;;;;;22.82;47.89;99310.56;5012033;28;20332;-77
2023/07/21 08:59:47;;;;;;;2.50;1.98;;;;;;;22.84;47.37;99304.00;5011900;28;20057;-79
2023/07/21 09:02:13;;;;;;;2.38;2.17;;;;;;;22.87;47.60;99305.50;5012209;28;20104;-78
2023/07/21 09:04:43;;;;;;;2.88;2.50;;;;;;;22.91;47.68;99304.13;5011718;28;20152;-77
2023/07/21 09:07:11;;;;;;;2.58;1.85;;;;;;;22.99;48.12;99300.56;5095274;22;20123;-80
2023/07/21 09:09:37;;;;;;;3.13;2.53;;;;;;;23.10;47.85;99300.13;5031911;28;20083;-80
2023/07/21 09:12:07;;;;;;;2.65;2.28;;;;;;;23.19;47.63;99300.88;5014021;28;20049;-80
2023/07/21 09:14:43;;;;;;;3.67;2.60;;;;;;;23.25;46.56;99305.53;5030674;28;20064;-80
2023/07/21 09:17:12;;;;;;;3.92;2.65;;;;;;;23.32;46.79;99307.50;5029170;28;20042;-80
2023/07/21 09:19:41;;;;;;;2.80;2.35;;;;;;;23.32;46.39;99307.50;5031456;28;20140;-80
2023/07/21 09:22:09;;;;;;;2.40;2.20;;;;;;;23.30;46.80;99313.84;5028824;28;20107;-80
2023/07/21 09:24:37;;;;;;;3.75;1.98;;;;;;;23.31;47.35;99309.34;5030715;28;20517;-80
2023/07/21 09:27:14;;;;;;;5.05;2.38;;;;;;;23.30;47.92;99305.81;5031252;28;20401;-80
2023/07/21 09:29:41;;;;;;;4.13;2.10;;;;;;;23.40;47.73;99307.44;5031776;28;20049;-80
2023/07/21 09:32:13;;;;;;;2.25;2.05;;;;;;;23.47;46.90;99305.69;5031446;28;20481;-80
2023/07/21 09:34:58;;;;;;;2.30;2.10;;;;;;;23.55;47.52;99292.16;5027714;28;20083;-81
2023/07/21 09:37:26;;;;;;;2.75;2.17;;;;;;;23.69;47.37;99293.19;5013907;28;20057;-80
2023/07/21 09:39:56;;;;;;;4.07;2.20;;;;;;;23.79;46.82;99292.94;5031508;28;20265;-81
2023/07/21 09:42:24;;;;;;;2.65;2.28;;;;;;;23.86;46.21;99311.00;5031403;28;20088;-80
2023/07/21 09:44:52;;;;;;;4.22;2.20;;;;;;;23.89;45.92;99307.94;5012723;28;20128;-80
2023/07/21 09:47:19;;;;;;;2.40;2.10;;;;;;;23.88;45.29;99299.03;5031410;28;20099;-80
2023/07/21 09:49:48;;;;;;;2.33;1.90;;;;;;;23.87;45.93;99301.91;5031103;28;20041;-80
2023/07/21 09:52:17;;;;;;;2.65;1.75;;;;;;;23.85;45.62;99295.88;5031292;28;20061;-80
2023/07/21 09:54:47;;;;;;;2.20;2.00;;;;;;;23.85;45.67;99301.25;5009700;28;20045;-80
2023/07/21 09:57:23;;;;;;;5.93;2.20;;;;;;;23.84;45.63;99303.09;5029309;28;20048;-80
2023/07/21 09:59:54;;;;;;;1.98;1.70;;;;;;;23.85;45.62;99304.78;5031207;28;20059;-80
2023/07/21 10:02:21;;;;;;;3.40;1.95;;;;;;;23.86;45.55;99311.00;5031328;28;20049;-80
2023/07/21 10:04:48;;;;;;;2.53;1.85;;;;;;;23.88;45.25;99299.03;5012984;28;20486;-79
2023/07/21 10:07:15;;;;;;;4.53;2.08;;;;;;;23.93;45.60;99295.78;5027376;28;20050;-80
2023/07/21 10:09:47;;;;;;;3.35;2.53;;;;;;;23.98;45.47;99301.44;5030759;28;20064;-79
2023/07/21 10:12:17;;;;;;;2.55;1.95;;;;;;;24.03;44.73;99295.50;5013283;28;20053;-80
2023/07/21 10:14:47;;;;;;;2.47;1.85;;;;;;;24.05;44.38;99299.69;5030761;28;20096;-80
2023/07/21 10:17:23;;;;;;;2.53;1.70;;;;;;;24.06;43.87;99301.34;5010723;28;20445;-80
2023/07/21 10:20:07;;;;;;;2.28;1.70;;;;;;;24.06;44.05;99309.41;5013340;28;20532;-79
2023/07/21 10:22:33;;;;;;;2.05;1.55;;;;;;;24.11;44.13;99310.72;5030792;28;20053;-80
2023/07/21 10:25:00;;;;;;;2.72;1.80;;;;;;;24.07;44.51;99308.38;5030617;28;20105;-80
2023/07/21 10:27:27;;;;;;;1.40;1.30;;;;;;;24.04;44.37;99302.56;5030563;28;20061;-80
2023/07/21 10:30:20;;;;;;;1.65;1.40;;;;;;;23.99;44.91;99300.41;5030864;28;20144;-80
2023/07/21 10:32:46;;;;;;;1.98;1.70;;;;;;;24.10;44.68;99300.97;5025236;28;20045;-80
2023/07/21 10:35:39;;;;;;;1.90;1.67;;;;;;;24.10;45.10;99291.06;5030426;28;20521;-80
2023/07/21 10:38:14;;;;;;;5.13;1.80;;;;;;;24.21;43.71;99297.81;5010934;28;20046;-80
2023/07/21 10:40:42;;;;;;;1.95;1.55;;;;;;;24.31;44.29;99293.00;5011049;28;20103;-80
2023/07/21 10:43:09;;;;;;;3.15;1.40;;;;;;;24.41;44.05;99292.66;5010887;28;20077;-81
2023/07/21 10:45:35;;;;;;;2.28;1.80;;;;;;;24.53;45.07;99300.25;4998456;28;20057;-80
2023/07/21 10:48:13;;;;;;;2.30;2.10;;;;;;;24.61;43.87;99297.44;5029928;28;20077;-80
2023/07/21 10:50:40;;;;;;;3.05;2.13;;;;;;;24.73;44.56;99289.69;5013155;28;20053;-80
2023/07/21 10:53:08;;;;;;;4.50;2.20;;;;;;;24.82;44.79;99293.91;5030526;28;20057;-80
2023/07/21 10:55:38;;;;;;;2.15;1.90;;;;;;;24.89;44.49;99299.38;5014327;28;20096;-80
2023/07/21 10:58:05;;;;;;;3.20;2.10;;;;;;;24.94;44.18;99301.50;5027901;28;20091;-80
2023/07/21 11:00:45;;;;;;;1.98;1.77;;;;;;;24.93;44.16;99297.97;5034454;28;20110;-80
2023/07/21 11:03:12;;;;;;;2.40;2.05;;;;;;;25.04;43.61;99282.34;5034516;28;20557;-80
2023/07/21 11:05:39;;;;;;;2.92;1.80;;;;;;;25.14;43.84;99281.97;5034264;28;20049;-80
2023/07/21 11:08:09;;;;;;;2.28;1.70;;;;;;;25.27;44.12;99284.81;5033954;28;20505;-80
2023/07/21 11:10:36;;;;;;;3.92;2.08;;;;;;;25.41;43.63;99283.03;5031521;28;20048;-79
2023/07/21 11:13:06;;;;;;;2.40;2.20;;;;;;;25.57;43.37;99281.91;5016992;28;20405;-80
2023/07/21 11:15:33;;;;;;;5.22;1.80;;;;;;;25.66;43.25;99276.34;5033814;28;20049;-80
2023/07/21 11:18:04;;;;;;;2.83;1.55;;;;;;;25.73;42.68;99277.22;5034317;28;20099;-80
2023/07/21 11:20:30;;;;;;;2.00;1.80;;;;;;;25.76;42.15;99279.53;5033904;28;20049;-80
2023/07/21 11:22:58;;;;;;;1.90;1.70;;;;;;;25.80;41.71;99283.50;5034035;28;20136;-80
2023/07/21 11:25:25;;;;;;;2.15;1.83;;;;;;;25.84;42.17;99279.38;5016295;28;20050;-80
2023/07/21 11:27:52;;;;;;;2.53;1.80;;;;;;;25.87;41.82;99283.53;5033925;28;20099;-80
2023/07/21 11:30:20;;;;;;;2.00;1.67;;;;;;;25.93;41.79;99271.94;5028807;28;20108;-80
2023/07/21 11:32:47;;;;;;;2.10;1.90;;;;;;;25.98;41.38;99279.44;5033427;28;20049;-80
2023/07/21 11:35:14;;;;;;;2.17;1.98;;;;;;;26.05;40.94;99276.78;5028848;28;20108;-81
2023/07/21 11:37:42;;;;;;;2.70;1.60;;;;;;;26.12;40.79;99283.84;5033427;28;20068;-81